createdAt,value
2022-12-18T00:02:14.694Z,66.21
2022-12-18T00:04:41.388Z,65.56
2022-12-18T00:07:08.046Z,66.35
2022-12-18T00:09:40.005Z,66.88
2022-12-18T00:14:45.457Z,68.29
2022-12-18T00:17:12.269Z,67.98
2022-12-18T00:19:38.957Z,66.99
2022-12-18T00:22:07.068Z,67.55
2022-12-18T00:24:33.813Z,66.65
2022-12-18T00:27:00.432Z,65.71
2022-12-18T00:29:27.077Z,64.88
2022-12-18T00:31:53.749Z,63.96
2022-12-18T00:34:20.366Z,64.46
2022-12-18T00:36:48.938Z,65.35
2022-12-18T00:39:15.610Z,65.89
2022-12-18T00:42:00.323Z,64.33
2022-12-18T00:44:26.940Z,63.91
2022-12-18T00:46:53.513Z,64.45
2022-12-18T00:49:21.148Z,64.90
2022-12-18T00:51:48.761Z,64.39
2022-12-18T00:54:16.011Z,64.60
2022-12-18T00:56:49.009Z,65.26
2022-12-18T00:59:17.226Z,66.52
2022-12-18T01:01:43.956Z,65.99
2022-12-18T01:04:10.718Z,65.92
2022-12-18T01:06:37.476Z,66.72
2022-12-18T01:09:04.192Z,65.33
2022-12-18T01:11:31.506Z,65.10
2022-12-18T01:14:01.397Z,64.54
2022-12-18T01:16:28.081Z,64.65
2022-12-18T01:18:55.593Z,64.84
2022-12-18T01:21:24.189Z,65.21
2022-12-18T01:23:56.044Z,65.91
2022-12-18T01:26:23.565Z,65.98
2022-12-18T01:28:50.188Z,67.58
2022-12-18T01:31:28.557Z,66.43
2022-12-18T01:33:55.914Z,66.52
2022-12-18T01:36:24.021Z,67.47
2022-12-18T01:38:51.704Z,69.34
2022-12-18T01:41:20.392Z,68.52
2022-12-18T01:43:58.330Z,67.76
2022-12-18T01:46:28.893Z,66.23
2022-12-18T01:48:58.940Z,65.68
2022-12-18T01:51:27.973Z,65.48
2022-12-18T01:53:54.617Z,65.83
2022-12-18T01:56:22.205Z,65.20
2022-12-18T01:59:07.673Z,66.77
2022-12-18T02:01:34.506Z,65.61
2022-12-18T02:04:24.966Z,65.15
2022-12-18T02:06:59.746Z,65.12
2022-12-18T02:09:34.935Z,65.91
2022-12-18T02:12:19.461Z,66.24
2022-12-18T02:14:52.069Z,66.00
2022-12-18T02:17:23.442Z,66.32
2022-12-18T02:20:15.147Z,66.34
2022-12-18T02:22:51.169Z,66.07
2022-12-18T02:25:55.405Z,66.04
2022-12-18T02:28:25.166Z,64.77
2022-12-18T02:30:54.587Z,64.54
2022-12-18T02:33:22.584Z,64.02
2022-12-18T02:35:50.794Z,63.69
2022-12-18T02:38:18.060Z,63.35
2022-12-18T02:40:46.228Z,65.09
2022-12-18T02:43:16.624Z,65.53
2022-12-18T02:45:50.775Z,66.77
2022-12-18T02:48:20.159Z,67.02
2022-12-18T02:50:59.444Z,65.47
2022-12-18T02:53:33.318Z,67.69
2022-12-18T02:56:18.251Z,66.53
2022-12-18T02:59:02.198Z,65.07
2022-12-18T03:01:34.689Z,65.68
2022-12-18T03:04:08.298Z,64.83
2022-12-18T03:06:43.438Z,64.71
2022-12-18T03:09:25.693Z,64.45
2022-12-18T03:12:26.084Z,64.73
2022-12-18T03:15:01.629Z,65.34
2022-12-18T03:17:31.373Z,64.97
2022-12-18T03:20:03.395Z,64.79
2022-12-18T03:22:33.189Z,64.31
2022-12-18T03:25:03.230Z,64.20
2022-12-18T03:27:32.411Z,64.00
2022-12-18T03:30:08.531Z,63.87
2022-12-18T03:33:04.778Z,64.62
2022-12-18T03:35:37.272Z,64.75
2022-12-18T03:38:04.059Z,64.19
2022-12-18T03:40:48.673Z,64.53
2022-12-18T03:43:28.802Z,64.90
2022-12-18T03:46:23.651Z,65.45
2022-12-18T03:48:57.503Z,65.43
2022-12-18T03:51:47.703Z,64.43
2022-12-18T03:54:15.298Z,64.01
2022-12-18T03:56:48.084Z,64.18
2022-12-18T03:59:17.964Z,64.74
2022-12-18T04:01:48.843Z,64.84
2022-12-18T04:04:17.673Z,65.19
2022-12-18T04:06:46.389Z,64.76
2022-12-18T04:09:13.985Z,64.35
2022-12-18T04:11:43.200Z,64.73
2022-12-18T04:14:11.939Z,63.90
2022-12-18T04:16:42.637Z,64.13
2022-12-18T04:19:09.279Z,63.76
2022-12-18T04:21:35.859Z,64.12
2022-12-18T04:24:02.623Z,63.81
2022-12-18T04:26:29.232Z,63.23
2022-12-18T04:28:55.845Z,64.20
2022-12-18T04:31:22.830Z,63.85
2022-12-18T04:33:49.584Z,63.83
2022-12-18T04:36:16.218Z,63.51
2022-12-18T04:38:42.903Z,64.14
2022-12-18T04:41:09.542Z,63.68
2022-12-18T04:43:36.272Z,64.10
2022-12-18T04:46:07.589Z,64.02
2022-12-18T04:48:34.844Z,64.97
2022-12-18T04:51:01.476Z,65.24
2022-12-18T04:53:28.088Z,67.04
2022-12-18T04:56:23.976Z,66.65
2022-12-18T04:58:50.808Z,65.97
2022-12-18T05:01:18.815Z,65.67
2022-12-18T05:03:46.144Z,65.20
2022-12-18T05:06:12.884Z,65.61
2022-12-18T05:08:39.557Z,65.32
2022-12-18T05:11:12.102Z,64.94
2022-12-18T05:13:39.535Z,64.39
2022-12-18T05:16:07.101Z,64.98
2022-12-18T05:18:34.337Z,64.08
2022-12-18T05:21:01.049Z,65.35
2022-12-18T05:23:28.398Z,64.86
2022-12-18T05:25:55.953Z,65.12
2022-12-18T05:28:23.828Z,64.42
2022-12-18T05:30:55.411Z,64.37
2022-12-18T05:33:23.353Z,64.63
2022-12-18T05:35:54.309Z,66.35
2022-12-18T05:38:21.927Z,67.09
2022-12-18T05:40:49.330Z,66.99
2022-12-18T05:43:20.995Z,65.45
2022-12-18T05:45:48.877Z,64.36
2022-12-18T05:48:16.204Z,63.89
2022-12-18T05:50:46.522Z,64.28
2022-12-18T05:53:14.435Z,64.76
2022-12-18T05:55:42.429Z,65.38
2022-12-18T05:58:10.405Z,64.88
2022-12-18T06:00:41.914Z,64.53
2022-12-18T06:03:09.943Z,63.95
2022-12-18T06:05:39.473Z,63.86
2022-12-18T06:08:06.754Z,64.00
2022-12-18T06:10:33.911Z,63.97
2022-12-18T06:13:01.420Z,64.51
2022-12-18T06:15:28.116Z,64.87
2022-12-18T06:17:54.752Z,65.72
2022-12-18T06:20:21.621Z,65.66
2022-12-18T06:22:48.234Z,64.71
2022-12-18T06:25:15.104Z,64.18
2022-12-18T06:27:42.238Z,63.67
2022-12-18T06:30:10.543Z,63.41
2022-12-18T06:32:37.203Z,63.04
2022-12-18T06:35:04.895Z,63.58
2022-12-18T06:37:32.564Z,64.16
2022-12-18T06:39:59.469Z,63.86
2022-12-18T06:42:26.128Z,63.53
2022-12-18T06:44:52.878Z,64.49
2022-12-18T06:47:19.834Z,64.07
2022-12-18T06:49:46.498Z,63.88
2022-12-18T06:52:13.080Z,63.78
2022-12-18T06:54:39.692Z,65.87
2022-12-18T06:57:06.264Z,65.93
2022-12-18T06:59:32.865Z,67.86
2022-12-18T07:01:59.690Z,68.08
2022-12-18T07:04:30.797Z,69.01
2022-12-18T07:06:58.341Z,69.44
2022-12-18T07:09:25.410Z,67.74
2022-12-18T07:11:52.848Z,67.33
2022-12-18T07:14:19.466Z,67.30
2022-12-18T07:16:46.198Z,66.45
2022-12-18T07:19:12.827Z,65.85
2022-12-18T07:21:39.402Z,65.24
2022-12-18T07:24:06.692Z,66.28
2022-12-18T07:26:33.347Z,67.57
2022-12-18T07:28:59.946Z,66.56
2022-12-18T07:31:27.445Z,66.08
2022-12-18T07:33:54.608Z,67.55
2022-12-18T07:36:21.474Z,67.23
2022-12-18T07:38:49.288Z,67.57
2022-12-18T07:41:16.433Z,66.79
2022-12-18T07:43:43.621Z,67.62
2022-12-18T07:46:13.446Z,67.37
2022-12-18T07:48:41.524Z,67.02
2022-12-18T07:51:08.754Z,68.25
2022-12-18T07:53:37.052Z,66.76
2022-12-18T07:58:56.914Z,66.17
2022-12-18T08:01:23.722Z,65.97
2022-12-18T08:03:52.125Z,66.24
2022-12-18T08:06:19.218Z,65.32
2022-12-18T08:08:46.007Z,65.13
2022-12-18T08:11:12.622Z,65.93
2022-12-18T08:13:39.482Z,65.89
2022-12-18T08:16:08.141Z,65.23
2022-12-18T08:18:37.074Z,64.96
2022-12-18T08:21:16.096Z,66.55
2022-12-18T08:23:43.847Z,67.63
2022-12-18T08:26:12.248Z,68.18
2022-12-18T08:28:39.289Z,67.70
2022-12-18T08:31:06.479Z,67.14
2022-12-18T08:33:34.011Z,69.24
2022-12-18T08:36:01.394Z,69.54
2022-12-18T08:38:28.306Z,69.64
2022-12-18T08:41:01.916Z,69.58
2022-12-18T08:43:47.472Z,68.29
2022-12-18T08:46:18.039Z,69.11
2022-12-18T08:48:44.955Z,69.03
2022-12-18T08:51:11.880Z,69.18
2022-12-18T08:53:39.032Z,70.22
2022-12-18T08:56:06.371Z,69.05
2022-12-18T08:58:32.995Z,68.09
2022-12-18T09:01:08.217Z,68.76
2022-12-18T09:03:34.946Z,69.27
2022-12-18T09:06:01.956Z,69.14
2022-12-18T09:08:29.177Z,68.34
2022-12-18T09:10:56.226Z,67.88
2022-12-18T09:13:23.348Z,68.31
2022-12-18T09:15:52.977Z,67.84
2022-12-18T09:18:21.638Z,68.00
2022-12-18T09:20:48.569Z,68.26
2022-12-18T09:23:15.535Z,68.14
2022-12-18T09:25:42.236Z,67.49
2022-12-18T09:28:18.310Z,66.84
2022-12-18T09:30:48.192Z,65.81
2022-12-18T09:33:14.901Z,65.33
2022-12-18T09:35:43.493Z,65.12
2022-12-18T09:38:13.641Z,64.03
2022-12-18T09:40:56.947Z,64.96
2022-12-18T09:43:26.564Z,64.64
2022-12-18T09:45:59.332Z,64.36
2022-12-18T09:48:48.760Z,66.03
2022-12-18T09:51:23.806Z,64.61
2022-12-18T09:53:59.480Z,64.29
2022-12-18T09:56:29.363Z,64.18
2022-12-18T09:59:04.632Z,64.40
2022-12-18T10:01:39.140Z,64.07
2022-12-18T10:04:10.756Z,63.63
2022-12-18T10:06:52.690Z,63.50
2022-12-18T10:09:28.282Z,63.41
2022-12-18T10:12:00.814Z,64.25
2022-12-18T10:14:48.129Z,63.31
2022-12-18T10:18:02.886Z,64.11
2022-12-18T10:20:43.106Z,64.04
2022-12-18T10:23:12.462Z,65.38
2022-12-18T10:26:06.082Z,65.48
2022-12-18T10:28:35.003Z,65.29
2022-12-18T10:31:01.854Z,65.63
2022-12-18T10:33:33.602Z,66.25
2022-12-18T10:36:01.259Z,66.08
2022-12-18T10:38:30.271Z,66.44
2022-12-18T10:40:56.835Z,65.35
2022-12-18T10:43:36.602Z,64.96
2022-12-18T10:46:06.891Z,63.44
2022-12-18T10:48:37.329Z,64.75
2022-12-18T10:51:12.876Z,65.13
2022-12-18T10:53:42.306Z,65.33
2022-12-18T10:56:09.887Z,64.79
2022-12-18T10:58:39.578Z,64.05
2022-12-18T11:01:17.838Z,63.31
2022-12-18T11:03:47.298Z,62.94
2022-12-18T11:06:17.357Z,63.99
2022-12-18T11:08:57.738Z,63.22
2022-12-18T11:11:25.528Z,62.68
2022-12-18T11:14:13.479Z,62.92
2022-12-18T11:17:24.448Z,63.73
2022-12-18T11:19:40.989Z,63.35
2022-12-18T11:22:29.742Z,63.43
2022-12-18T11:27:56.945Z,62.42
2022-12-18T11:30:23.537Z,61.98
2022-12-18T11:33:02.142Z,62.42
2022-12-18T11:35:34.508Z,61.45
2022-12-18T11:38:06.118Z,61.29
2022-12-18T11:40:41.255Z,60.50
2022-12-18T11:43:15.932Z,61.93
2022-12-18T11:45:53.428Z,60.98
2022-12-18T11:48:28.645Z,60.67
2022-12-18T11:50:57.765Z,59.60
2022-12-18T11:53:26.502Z,59.32
2022-12-18T11:56:28.700Z,61.46
2022-12-18T11:59:17.669Z,63.10
2022-12-18T12:01:52.032Z,64.04
2022-12-18T12:04:36.411Z,65.43
2022-12-18T12:07:22.425Z,64.88
2022-12-18T12:09:49.003Z,65.21
2022-12-18T12:12:22.653Z,64.03
2022-12-18T12:15:14.174Z,63.65
2022-12-18T12:18:00.282Z,63.38
2022-12-18T12:20:58.736Z,62.64
2022-12-18T12:23:53.281Z,61.67
2022-12-18T12:26:45.910Z,62.59
2022-12-18T12:29:28.440Z,62.34
2022-12-18T12:32:43.607Z,61.40
2022-12-18T12:35:21.197Z,61.73
2022-12-18T12:38:20.838Z,61.88
2022-12-18T12:41:03.255Z,61.46
2022-12-18T12:43:50.948Z,62.64
2022-12-18T12:46:22.351Z,62.01
2022-12-18T12:49:00.831Z,61.19
2022-12-18T12:51:35.017Z,60.62
2022-12-18T12:54:04.692Z,60.94
2022-12-18T12:56:44.677Z,62.29
2022-12-18T12:59:27.291Z,61.61
2022-12-18T13:02:05.549Z,60.52
2022-12-18T13:04:51.017Z,60.80
2022-12-18T13:07:29.794Z,60.55
2022-12-18T13:10:17.872Z,60.25
2022-12-18T13:12:57.907Z,59.87
2022-12-18T13:15:49.428Z,60.01
2022-12-18T13:18:23.722Z,60.03
2022-12-18T13:21:02.908Z,60.28
2022-12-18T13:23:41.503Z,60.52
2022-12-18T13:26:11.858Z,60.79
2022-12-18T13:28:47.296Z,60.86
2022-12-18T13:31:42.171Z,61.18
2022-12-18T13:37:40.819Z,63.47
2022-12-18T13:40:57.150Z,63.72
2022-12-18T13:43:25.660Z,64.21
2022-12-18T13:46:05.361Z,63.85
2022-12-18T13:48:37.018Z,64.32
2022-12-18T13:51:09.727Z,63.68
2022-12-18T13:53:43.511Z,63.01
2022-12-18T13:56:10.529Z,63.36
2022-12-18T13:58:37.093Z,64.06
2022-12-18T14:01:05.743Z,63.67
2022-12-18T14:03:32.631Z,64.90
2022-12-18T14:06:03.890Z,63.59
2022-12-18T14:08:36.554Z,63.63
2022-12-18T14:11:06.292Z,63.96
2022-12-18T14:13:42.205Z,63.04
2022-12-18T14:16:14.997Z,64.94
2022-12-18T14:18:53.817Z,64.37
2022-12-18T14:21:30.598Z,64.08
2022-12-18T14:24:06.103Z,63.47
2022-12-18T14:26:34.265Z,63.65
2022-12-18T14:29:19.683Z,62.96
2022-12-18T14:32:18.722Z,63.71
2022-12-18T14:34:55.113Z,63.12
2022-12-18T14:37:25.985Z,62.72
2022-12-18T14:40:11.095Z,64.59
2022-12-18T14:42:38.759Z,64.93
2022-12-18T14:45:40.930Z,64.67
2022-12-18T14:48:19.699Z,64.75
2022-12-18T14:51:01.037Z,64.04
2022-12-18T14:53:37.358Z,64.71
2022-12-18T14:56:14.612Z,64.77
2022-12-18T14:58:46.812Z,65.40
2022-12-18T15:01:57.534Z,64.92
2022-12-18T15:04:31.396Z,63.39
2022-12-18T15:07:07.846Z,63.03
2022-12-18T15:09:34.486Z,64.63
2022-12-18T15:12:02.973Z,65.20
2022-12-18T15:14:41.345Z,66.09
2022-12-18T15:17:19.730Z,64.84
2022-12-18T15:19:48.038Z,63.97
2022-12-18T15:22:36.235Z,66.28
2022-12-18T15:25:23.915Z,66.46
2022-12-18T15:27:50.577Z,66.65
2022-12-18T15:30:22.936Z,66.05
2022-12-18T15:32:50.551Z,65.17
2022-12-18T15:35:17.122Z,65.45
2022-12-18T15:37:44.069Z,66.27
2022-12-18T15:40:18.816Z,66.70
2022-12-18T15:43:06.933Z,66.85
2022-12-18T15:45:34.028Z,67.03
2022-12-18T15:48:01.069Z,67.69
2022-12-18T15:50:27.715Z,69.29
2022-12-18T15:52:56.493Z,68.99
2022-12-18T15:55:43.555Z,69.21
2022-12-18T15:58:12.374Z,68.65
2022-12-18T16:00:41.217Z,69.77
2022-12-18T16:03:08.487Z,69.72
2022-12-18T16:05:35.321Z,68.94
2022-12-18T16:08:01.957Z,69.19
2022-12-18T16:10:28.730Z,69.42
2022-12-18T16:12:55.622Z,68.90
2022-12-18T16:15:24.743Z,68.69
2022-12-18T16:17:52.941Z,66.94
2022-12-18T16:20:23.436Z,66.57
2022-12-18T16:22:50.632Z,68.51
2022-12-18T16:25:26.959Z,69.60
2022-12-18T16:27:56.080Z,69.60
2022-12-18T16:30:28.832Z,70.07
2022-12-18T16:32:59.673Z,70.60
2022-12-18T16:35:27.555Z,69.81
2022-12-18T16:37:54.298Z,68.36
2022-12-18T16:40:21.256Z,67.66
2022-12-18T16:42:47.978Z,66.94
2022-12-18T16:45:18.277Z,68.87
2022-12-18T16:47:45.307Z,70.85
2022-12-18T16:50:12.486Z,69.91
2022-12-18T16:52:42.307Z,69.22
2022-12-18T16:55:09.437Z,69.21
2022-12-18T16:57:36.179Z,69.03
2022-12-18T17:00:05.677Z,68.91
2022-12-18T17:02:33.643Z,67.99
2022-12-18T17:05:00.931Z,68.61
2022-12-18T17:07:28.707Z,67.67
2022-12-18T17:09:55.975Z,68.34
2022-12-18T17:12:28.939Z,68.16
2022-12-18T17:14:55.648Z,67.94
2022-12-18T17:17:23.321Z,67.89
2022-12-18T17:19:52.260Z,67.51
2022-12-18T17:22:20.043Z,66.82
2022-12-18T17:24:49.935Z,66.22
2022-12-18T17:27:17.002Z,66.27
2022-12-18T17:29:48.019Z,65.65
2022-12-18T17:32:16.396Z,66.28
2022-12-18T17:34:45.462Z,65.56
2022-12-18T17:37:12.665Z,67.20
2022-12-18T17:39:41.955Z,67.05
2022-12-18T17:42:15.303Z,69.52
2022-12-18T17:44:42.719Z,71.01
2022-12-18T17:47:12.796Z,71.01
2022-12-18T17:49:43.245Z,70.40
2022-12-18T17:52:10.523Z,69.08
2022-12-18T17:54:39.967Z,67.95
2022-12-18T17:57:08.248Z,66.82
2022-12-18T17:59:34.970Z,66.25
2022-12-18T18:02:01.653Z,65.77
2022-12-18T18:04:28.443Z,65.72
2022-12-18T18:06:55.051Z,67.59
2022-12-18T18:09:21.706Z,69.11
2022-12-18T18:12:06.549Z,67.77
2022-12-18T18:14:33.574Z,67.04
2022-12-18T18:17:04.679Z,67.12
2022-12-18T18:19:33.002Z,66.56
2022-12-18T18:21:59.694Z,66.04
2022-12-18T18:24:26.395Z,66.33
2022-12-18T18:26:53.356Z,66.47
2022-12-18T18:29:25.404Z,67.95
2022-12-18T18:31:54.071Z,68.82
2022-12-18T18:34:23.700Z,68.84
2022-12-18T18:36:50.737Z,68.40
2022-12-18T18:39:18.278Z,69.13
2022-12-18T18:41:45.427Z,70.24
2022-12-18T18:44:14.725Z,71.20
2022-12-18T18:46:41.559Z,72.54
2022-12-18T18:49:08.202Z,71.88
2022-12-18T18:51:35.485Z,72.54
2022-12-18T18:54:02.601Z,72.12
2022-12-18T18:59:16.693Z,71.74
2022-12-18T19:01:43.563Z,73.19
2022-12-18T19:04:10.349Z,72.58
2022-12-18T19:06:36.937Z,71.54
2022-12-18T19:09:05.041Z,71.37
2022-12-18T19:11:51.076Z,70.90
2022-12-18T19:14:18.070Z,71.85
2022-12-18T19:16:45.530Z,71.79
2022-12-18T19:19:13.062Z,71.58
2022-12-18T19:21:40.937Z,69.91
2022-12-18T19:24:07.964Z,69.51
2022-12-18T19:26:36.406Z,69.45
2022-12-18T19:29:08.254Z,71.30
2022-12-18T19:31:37.039Z,71.54
2022-12-18T19:34:06.789Z,70.01
2022-12-18T19:36:36.828Z,69.58
2022-12-18T19:39:13.214Z,70.89
2022-12-18T19:41:42.273Z,70.71
2022-12-18T19:44:11.966Z,71.88
2022-12-18T19:46:41.699Z,70.65
2022-12-18T19:49:13.660Z,71.19
2022-12-18T19:51:44.364Z,71.43
2022-12-18T19:54:16.774Z,71.69
2022-12-18T19:56:44.630Z,72.77
2022-12-18T19:59:11.253Z,72.90
2022-12-18T20:01:38.120Z,71.97
2022-12-18T20:04:05.162Z,72.51
2022-12-18T20:06:46.370Z,72.50
2022-12-18T20:09:12.987Z,72.55
2022-12-18T20:11:41.885Z,72.35
2022-12-18T20:14:11.113Z,72.22
2022-12-18T20:16:38.305Z,71.18
2022-12-18T20:19:05.505Z,70.68
2022-12-18T20:21:32.445Z,70.18
2022-12-18T20:24:00.223Z,70.63
2022-12-18T20:26:27.501Z,69.18
2022-12-18T20:28:55.580Z,68.53
2022-12-18T20:31:23.186Z,67.41
2022-12-18T20:33:52.249Z,67.71
2022-12-18T20:36:25.877Z,67.70
2022-12-18T20:38:57.042Z,67.11
2022-12-18T20:41:24.921Z,68.41
2022-12-18T20:43:51.609Z,68.44
2022-12-18T20:46:18.766Z,69.16
2022-12-18T20:48:46.174Z,69.04
2022-12-18T20:51:16.833Z,68.88
2022-12-18T20:53:44.804Z,69.86
2022-12-18T20:56:18.907Z,69.05
2022-12-18T20:58:49.809Z,69.47
2022-12-18T21:01:19.801Z,69.45
2022-12-18T21:03:48.112Z,68.77
2022-12-18T21:06:17.271Z,71.06
2022-12-18T21:08:44.705Z,71.85
2022-12-18T21:11:35.405Z,73.03
2022-12-18T21:14:08.971Z,72.85
2022-12-18T21:16:35.727Z,73.24
2022-12-18T21:19:02.515Z,72.50
2022-12-18T21:21:29.284Z,72.94
2022-12-18T21:24:01.380Z,72.01
2022-12-18T21:26:28.751Z,72.10
2022-12-18T21:29:00.309Z,71.93
2022-12-18T21:31:29.926Z,71.93
2022-12-18T21:34:01.829Z,70.61
2022-12-18T21:36:30.372Z,71.66
2022-12-18T21:38:58.341Z,72.58
2022-12-18T21:41:44.232Z,71.31
2022-12-18T21:44:16.280Z,71.40
2022-12-18T21:46:46.344Z,71.31
2022-12-18T21:49:22.876Z,72.02
2022-12-18T21:51:51.779Z,71.11
2022-12-18T21:54:19.395Z,70.62
2022-12-18T21:56:55.840Z,70.67
2022-12-18T21:59:25.194Z,71.21
2022-12-18T22:01:54.134Z,69.88
2022-12-18T22:04:21.726Z,70.39
2022-12-18T22:06:49.379Z,70.39
2022-12-18T22:09:18.809Z,69.97
2022-12-18T22:11:46.098Z,69.75
2022-12-18T22:14:14.763Z,72.20
2022-12-18T22:16:42.565Z,71.58
2022-12-18T22:19:11.426Z,71.20
2022-12-18T22:21:41.585Z,70.58
2022-12-18T22:24:13.327Z,71.38
2022-12-18T22:26:40.530Z,72.87
2022-12-18T22:29:26.538Z,72.70
2022-12-18T22:31:53.154Z,72.86
2022-12-18T22:34:22.986Z,73.00
2022-12-18T22:36:50.817Z,73.79
2022-12-18T22:39:26.261Z,73.16
2022-12-18T22:41:55.667Z,73.79
2022-12-18T22:44:25.222Z,72.83
2022-12-18T22:46:59.932Z,72.72
2022-12-18T22:49:35.083Z,71.98
2022-12-18T22:52:06.498Z,70.95
2022-12-18T22:54:33.106Z,71.20
2022-12-18T22:56:59.681Z,70.72
2022-12-18T22:59:26.370Z,70.36
2022-12-18T23:01:58.721Z,69.46
2022-12-18T23:04:29.108Z,68.67
2022-12-18T23:07:04.038Z,68.14
2022-12-18T23:09:30.675Z,67.45
2022-12-18T23:11:57.805Z,67.14
2022-12-18T23:14:24.425Z,66.99
2022-12-18T23:16:52.285Z,66.83
2022-12-18T23:19:20.064Z,67.13
2022-12-18T23:21:46.706Z,66.85
2022-12-18T23:24:13.696Z,66.39
2022-12-18T23:26:40.546Z,66.49
2022-12-18T23:29:08.025Z,65.74
2022-12-18T23:31:36.870Z,65.74
2022-12-18T23:34:05.535Z,66.78
2022-12-18T23:36:35.905Z,66.88
2022-12-18T23:39:25.810Z,68.68
2022-12-18T23:41:58.083Z,69.21
2022-12-18T23:44:25.041Z,68.91
2022-12-18T23:46:51.839Z,67.67
2022-12-18T23:49:18.541Z,67.90
2022-12-18T23:51:45.188Z,67.57
2022-12-18T23:54:11.775Z,67.09
2022-12-18T23:56:38.388Z,66.16
2022-12-18T23:59:05.063Z,65.67
